Time;durP1;ratioP1;P1;durP2;ratioP2;P2;SDS_P1;SDS_P2;PMS_P1;PMS_P2;Temp;Humidity;BMP_temperature;BMP_pressure;BME280_temperature;BME280_humidity;BME280_pressure;Samples;Min_cycle;Max_cycle;Signal;HPM_P1;HPM_P2
2023/06/21 00:01:43;;;;;;;0.00;0.00;;;19.90;99.90;;;;;;6274155;22;20000;-89
2023/06/21 00:04:09;;;;;;;0.00;0.00;;;20.00;99.90;;;;;;6273327;22;20006;-87
2023/06/21 00:06:34;;;;;;;0.00;0.00;;;20.00;99.90;;;;;;6271712;22;20007;-88
2023/06/21 00:09:03;;;;;;;0.00;0.00;;;19.90;99.90;;;;;;6248070;22;20449;-89
2023/06/21 00:11:32;;;;;;;0.00;0.00;;;20.00;99.90;;;;;;6247614;22;20011;-87
2023/06/21 00:13:58;;;;;;;0.00;0.00;;;20.00;99.90;;;;;;6272851;22;20427;-88
2023/06/21 00:16:24;;;;;;;0.00;0.00;;;;;;;;;;6272826;22;20036;-87
2023/06/21 00:18:50;;;;;;;0.00;0.00;;;;;;;;;;6273184;22;20095;-88
2023/06/21 00:21:16;;;;;;;0.00;0.00;;;;;;;;;;6272956;22;20031;-87
2023/06/21 00:23:44;;;;;;;0.00;0.00;;;19.80;99.90;;;;;;6273934;22;20465;-88
2023/06/21 00:26:10;;;;;;;0.00;0.00;;;19.80;99.90;;;;;;6273977;22;20038;-87
2023/06/21 00:28:36;;;;;;;0.00;0.00;;;;;;;;;;6273910;22;20234;-87
2023/06/21 00:31:03;;;;;;;0.00;0.00;;;;;;;;;;6273622;22;20441;-89
2023/06/21 00:33:28;;;;;;;0.00;0.00;;;19.90;99.90;;;;;;6273836;22;20011;-87
2023/06/21 00:35:54;;;;;;;0.00;0.00;;;19.90;99.90;;;;;;6273769;22;20003;-88
2023/06/21 00:38:20;;;;;;;0.00;0.00;;;;;;;;;;6273821;22;20015;-87
2023/06/21 00:40:47;;;;;;;0.00;0.00;;;20.20;99.90;;;;;;6274104;22;20037;-87
2023/06/21 00:43:15;;;;;;;0.00;0.00;;;;;;;;;;6274462;22;20490;-88
2023/06/21 00:45:45;;;;;;;0.00;0.00;;;;;;;;;;6273960;22;20023;-89
2023/06/21 00:48:11;;;;;;;0.00;0.00;;;20.10;99.90;;;;;;6274920;22;20042;-89
2023/06/21 00:50:40;;;;;;;0.00;0.00;;;;;;;;;;6247084;22;20015;-87
2023/06/21 00:53:06;;;;;;;0.00;0.00;;;;;;;;;;6273686;22;20012;-88
2023/06/21 00:55:33;;;;;;;0.00;0.00;;;20.10;99.90;;;;;;6248499;22;20061;-86
2023/06/21 00:57:58;;;;;;;0.00;0.00;;;19.90;99.90;;;;;;6273768;22;20434;-88
2023/06/21 01:00:25;;;;;;;0.00;0.00;;;19.70;99.90;;;;;;6273701;22;20054;-89
2023/06/21 01:02:53;;;;;;;0.00;0.00;;;19.70;99.90;;;;;;6273163;22;20030;-90
2023/06/21 01:05:22;;;;;;;0.00;0.00;;;19.70;99.90;;;;;;6272675;22;20063;-88
2023/06/21 01:08:49;;;;;;;0.00;0.00;;;19.70;99.90;;;;;;6273599;22;20004;-88
2023/06/21 01:11:26;;;;;;;0.00;0.00;;;19.80;99.90;;;;;;6216551;22;20008;-86
2023/06/21 01:14:10;;;;;;;0.00;0.00;;;19.80;99.90;;;;;;6271326;22;20502;-87
2023/06/21 01:16:40;;;;;;;0.00;0.00;;;19.60;99.90;;;;;;6271830;22;20003;-88
2023/06/21 01:19:31;;;;;;;0.00;0.00;;;19.60;99.90;;;;;;6275637;22;20015;-88
2023/06/21 01:22:00;;;;;;;0.00;0.00;;;19.50;99.90;;;;;;6249983;22;20003;-88
2023/06/21 01:24:45;;;;;;;0.00;0.00;;;19.40;99.90;;;;;;6274506;22;20030;-88
2023/06/21 01:27:41;;;;;;;0.00;0.00;;;19.40;99.90;;;;;;6276130;22;20018;-89
2023/06/21 01:30:09;;;;;;;0.00;0.00;;;19.40;99.90;;;;;;6264518;22;20003;-87
2023/06/21 01:32:37;;;;;;;0.00;0.00;;;;;;;;;;6274762;22;20003;-89
2023/06/21 01:35:04;;;;;;;0.00;0.00;;;19.50;99.90;;;;;;6274700;22;20007;-89
2023/06/21 01:37:30;;;;;;;0.00;0.00;;;;;;;;;;6277024;22;20011;-89
2023/06/21 01:39:56;;;;;;;0.00;0.00;;;19.50;99.90;;;;;;6249158;22;20122;-88
2023/06/21 01:42:22;;;;;;;0.00;0.00;;;;;;;;;;6250219;22;20027;-90
2023/06/21 01:44:48;;;;;;;0.00;0.00;;;19.60;99.90;;;;;;6249520;22;20000;-87
2023/06/21 01:47:14;;;;;;;0.00;0.00;;;19.50;99.90;;;;;;6249865;22;20010;-90
2023/06/21 01:49:42;;;;;;;0.00;0.00;;;19.60;99.90;;;;;;6249311;22;20405;-90
2023/06/21 01:52:08;;;;;;;0.00;0.00;;;19.60;99.90;;;;;;6276397;22;20000;-89
2023/06/21 01:54:34;;;;;;;0.00;0.00;;;19.70;99.90;;;;;;6249407;22;20026;-91
2023/06/21 01:57:01;;;;;;;0.00;0.00;;;19.60;99.90;;;;;;6249702;22;20004;-90
2023/06/21 01:59:30;;;;;;;0.00;0.00;;;19.50;99.90;;;;;;6249533;22;20447;-89
2023/06/21 02:01:59;;;;;;;0.00;0.00;;;19.50;99.90;;;;;;6249426;22;20061;-90
2023/06/21 02:04:26;;;;;;;0.00;0.00;;;19.70;99.90;;;;;;6223631;22;20022;-90
2023/06/21 02:06:53;;;;;;;0.00;0.00;;;19.70;99.90;;;;;;6249396;22;20000;-90
2023/06/21 02:09:20;;;;;;;0.00;0.00;;;19.70;99.90;;;;;;6249040;22;20004;-91
2023/06/21 02:11:46;;;;;;;0.00;0.00;;;;;;;;;;6249236;22;20086;-89
2023/06/21 02:14:12;;;;;;;0.00;0.00;;;;;;;;;;6249385;22;20030;-89
2023/06/21 02:16:38;;;;;;;0.00;0.00;;;19.40;99.90;;;;;;6249555;22;20034;-89
2023/06/21 02:19:04;;;;;;;0.00;0.00;;;;;;;;;;6276222;22;20013;-90
2023/06/21 02:21:30;;;;;;;0.00;0.00;;;;;;;;;;6249065;22;20339;-91
2023/06/21 02:23:56;;;;;;;0.00;0.00;;;;;;;;;;6249125;22;20450;-91
2023/06/21 02:26:22;;;;;;;0.00;0.00;;;;;;;;;;6248721;22;20073;-89
2023/06/21 02:28:48;;;;;;;0.00;0.00;;;19.20;99.90;;;;;;6248791;22;20053;-89
2023/06/21 02:31:14;;;;;;;0.00;0.00;;;19.10;99.90;;;;;;6248297;22;19999;-90
2023/06/21 02:33:44;;;;;;;0.00;0.00;;;19.10;99.90;;;;;;6248810;22;20004;-90
2023/06/21 02:36:10;;;;;;;0.00;0.00;;;19.00;99.90;;;;;;6249387;22;20023;-91
2023/06/21 02:38:36;;;;;;;0.00;0.00;;;;;;;;;;6267006;22;20803;-91
2023/06/21 02:41:01;;;;;;;0.00;0.00;;;18.90;99.90;;;;;;6273893;22;20007;-91
2023/06/21 02:43:27;;;;;;;0.00;0.00;;;18.80;99.90;;;;;;6273933;22;20430;-89
2023/06/21 02:46:00;;;;;;;0.00;0.00;;;18.80;99.90;;;;;;6274101;22;20374;-91
2023/06/21 02:48:26;;;;;;;0.00;0.00;;;;;;;;;;6273836;22;20007;-90
2023/06/21 02:50:52;;;;;;;0.00;0.00;;;;;;;;;;6273603;22;20003;-91
2023/06/21 02:53:17;;;;;;;0.00;0.00;;;18.80;99.90;;;;;;6274232;22;20435;-89
2023/06/21 02:55:43;;;;;;;0.00;0.00;;;;;;;;;;6274244;22;20045;-88
2023/06/21 02:58:09;;;;;;;0.00;0.00;;;18.80;99.90;;;;;;6273818;22;20007;-88
2023/06/21 03:00:36;;;;;;;0.00;0.00;;;;;;;;;;6272739;22;20111;-88
2023/06/21 03:03:02;;;;;;;0.00;0.00;;;18.90;99.90;;;;;;6273627;22;20039;-88
2023/06/21 03:05:28;;;;;;;0.00;0.00;;;20.90;99.90;;;;;;6273884;22;20284;-90
2023/06/21 03:07:54;;;;;;;0.00;0.00;;;18.90;99.90;;;;;;6274230;22;20000;-88
2023/06/21 03:10:21;;;;;;;0.00;0.00;;;;;;;;;;6273734;22;20006;-90
2023/06/21 03:12:46;;;;;;;0.00;0.00;;;18.90;99.90;;;;;;6275541;22;19995;-89
2023/06/21 03:15:12;;;;;;;0.00;0.00;;;;;;;;;;6272439;22;20026;-89
2023/06/21 03:17:39;;;;;;;0.00;0.00;;;18.80;99.90;;;;;;6272668;22;20000;-87
2023/06/21 03:20:13;;;;;;;0.00;0.00;;;18.90;99.90;;;;;;6273317;22;20007;-90
2023/06/21 03:22:45;;;;;;;0.00;0.00;;;18.80;99.90;;;;;;6273669;22;19996;-90
2023/06/21 03:25:13;;;;;;;0.00;0.00;;;18.70;99.90;;;;;;6273082;22;20057;-89
2023/06/21 03:27:39;;;;;;;0.00;0.00;;;18.80;99.90;;;;;;6274083;22;20007;-90
2023/06/21 03:30:07;;;;;;;0.00;0.00;;;18.80;99.90;;;;;;6274152;22;20443;-89
2023/06/21 03:32:33;;;;;;;0.00;0.00;;;;;;;;;;6247264;22;20027;-88
2023/06/21 03:34:59;;;;;;;0.00;0.00;;;;;;;;;;6274178;22;19996;-89
2023/06/21 03:37:27;;;;;;;0.00;0.00;;;18.60;99.90;;;;;;6273815;22;20424;-89
2023/06/21 03:39:53;;;;;;;0.00;0.00;;;18.60;99.90;;;;;;6272698;22;20008;-90
2023/06/21 03:42:19;;;;;;;0.00;0.00;;;;;;;;;;6273375;22;20375;-89
2023/06/21 03:44:45;;;;;;;0.00;0.00;;;18.60;99.90;;;;;;6273426;22;20445;-90
2023/06/21 03:47:11;;;;;;;0.00;0.00;;;;;;;;;;6273780;22;20000;-88
2023/06/21 03:49:38;;;;;;;0.00;0.00;;;18.60;99.90;;;;;;6274124;22;20011;-89
2023/06/21 03:52:04;;;;;;;0.00;0.00;;;18.70;99.90;;;;;;6274295;22;20007;-90
2023/06/21 03:54:30;;;;;;;0.00;0.00;;;18.60;99.90;;;;;;6275504;22;20386;-89
2023/06/21 03:56:56;;;;;;;0.00;0.00;;;;;;;;;;6274121;22;20000;-90
2023/06/21 03:59:22;;;;;;;0.00;0.00;;;;;;;;;;6273818;22;20000;-90
2023/06/21 04:01:48;;;;;;;0.00;0.00;;;;;;;;;;6273231;22;20071;-90
2023/06/21 04:04:14;;;;;;;0.00;0.00;;;;;;;;;;6274064;22;20031;-87
2023/06/21 04:06:39;;;;;;;0.00;0.00;;;18.80;99.90;;;;;;6273652;22;19995;-90
2023/06/21 04:09:05;;;;;;;0.00;0.00;;;;;;;;;;6273097;22;20113;-89
2023/06/21 04:11:31;;;;;;;0.00;0.00;;;18.90;99.90;;;;;;6273615;22;20004;-89
2023/06/21 04:13:57;;;;;;;0.00;0.00;;;18.90;99.90;;;;;;6272996;22;20424;-90
2023/06/21 04:16:23;;;;;;;0.00;0.00;;;;;;;;;;6270943;22;20074;-89
2023/06/21 04:18:49;;;;;;;0.00;0.00;;;;;;;;;;6272234;22;20453;-88
2023/06/21 04:21:15;;;;;;;0.00;0.00;;;;;;;;;;6272963;22;20008;-89
2023/06/21 04:23:40;;;;;;;0.00;0.00;;;18.90;99.90;;;;;;6272265;22;20011;-89
2023/06/21 04:26:06;;;;;;;0.00;0.00;;;;;;;;;;6274583;22;20003;-89
2023/06/21 04:28:33;;;;;;;0.00;0.00;;;19.00;99.90;;;;;;6274091;22;20395;-89
2023/06/21 04:31:00;;;;;;;0.00;0.00;;;19.10;99.90;;;;;;6273794;22;20000;-89
2023/06/21 04:33:26;;;;;;;0.00;0.00;;;;;;;;;;6274534;22;20007;-88
2023/06/21 04:35:52;;;;;;;0.00;0.00;;;19.10;99.90;;;;;;6273187;22;20012;-91
2023/06/21 04:38:18;;;;;;;0.00;0.00;;;;;;;;;;6275516;22;20058;-89
2023/06/21 04:40:43;;;;;;;0.00;0.00;;;19.10;99.90;;;;;;6247663;22;20439;-88
2023/06/21 04:43:09;;;;;;;0.00;0.00;;;;;;;;;;6247470;22;20061;-88
2023/06/21 04:45:36;;;;;;;0.00;0.00;;;;;;;;;;6273872;22;20418;-89
2023/06/21 04:48:03;;;;;;;0.00;0.00;;;19.00;99.90;;;;;;6246914;22;20035;-89
2023/06/21 04:50:29;;;;;;;0.00;0.00;;;19.30;99.90;;;;;;6248763;22;20003;-90
2023/06/21 04:52:59;;;;;;;0.00;0.00;;;19.20;99.90;;;;;;6249752;22;20012;-90
2023/06/21 04:55:25;;;;;;;0.00;0.00;;;19.30;99.90;;;;;;6250077;22;20100;-89
2023/06/21 04:57:51;;;;;;;0.00;0.00;;;19.20;99.90;;;;;;6250813;22;20500;-88
2023/06/21 05:00:17;;;;;;;0.00;0.00;;;19.20;99.90;;;;;;6249523;22;20083;-87
2023/06/21 05:02:43;;;;;;;0.00;0.00;;;19.30;99.90;;;;;;6250672;22;20014;-88
2023/06/21 05:05:09;;;;;;;0.00;0.00;;;;;;;;;;6251353;22;20035;-89
2023/06/21 05:07:37;;;;;;;0.00;0.00;;;19.30;99.90;;;;;;6250417;22;20049;-88
2023/06/21 05:10:04;;;;;;;0.00;0.00;;;19.20;99.90;;;;;;6250949;22;20004;-87
2023/06/21 05:12:30;;;;;;;0.00;0.00;;;;;;;;;;6250769;22;20440;-88
2023/06/21 05:14:56;;;;;;;0.00;0.00;;;;;;;;;;6250176;22;20031;-88
2023/06/21 05:17:22;;;;;;;0.00;0.00;;;;;;;;;;6250516;22;20007;-88
2023/06/21 05:19:48;;;;;;;0.00;0.00;;;19.90;99.90;;;;;;6251439;22;20411;-88
2023/06/21 05:22:14;;;;;;;0.00;0.00;;;19.40;99.90;;;;;;6250371;22;20057;-88
2023/06/21 05:24:40;;;;;;;0.00;0.00;;;;;;;;;;6249823;22;20374;-88
2023/06/21 05:27:06;;;;;;;0.00;0.00;;;19.40;99.90;;;;;;6250391;22;20004;-88
2023/06/21 05:29:31;;;;;;;0.00;0.00;;;19.40;99.90;;;;;;6250622;22;20007;-89
2023/06/21 05:31:57;;;;;;;0.00;0.00;;;19.50;99.90;;;;;;6250262;22;20000;-88
2023/06/21 05:34:23;;;;;;;0.00;0.00;;;;;;;;;;6249728;22;20008;-89
2023/06/21 05:36:48;;;;;;;0.00;0.00;;;19.70;99.90;;;;;;6251218;22;20007;-88
2023/06/21 05:39:14;;;;;;;0.00;0.00;;;19.70;99.90;;;;;;6250742;22;20130;-88
2023/06/21 05:41:39;;;;;;;0.00;0.00;;;19.70;99.90;;;;;;6277478;22;20021;-88
2023/06/21 05:44:05;;;;;;;0.00;0.00;;;;;;;;;;6250816;22;20031;-89
2023/06/21 05:46:31;;;;;;;0.00;0.00;;;;;;;;;;6250617;22;20015;-89
2023/06/21 05:48:57;;;;;;;0.00;0.00;;;;;;;;;;6250251;22;20000;-89
2023/06/21 05:51:23;;;;;;;0.00;0.00;;;;;;;;;;6250888;22;20027;-90
2023/06/21 05:53:49;;;;;;;0.00;0.00;;;19.90;99.90;;;;;;6250467;22;20008;-89
2023/06/21 05:56:14;;;;;;;0.00;0.00;;;19.90;99.90;;;;;;6250851;22;20008;-90
2023/06/21 05:58:40;;;;;;;0.00;0.00;;;19.80;99.90;;;;;;6250226;22;20007;-89
2023/06/21 06:01:05;;;;;;;0.00;0.00;;;;;;;;;;6250053;22;20036;-88
2023/06/21 06:03:31;;;;;;;0.00;0.00;;;19.80;99.90;;;;;;6252356;22;20004;-90
2023/06/21 06:05:57;;;;;;;0.00;0.00;;;;;;;;;;6253821;22;20006;-89
2023/06/21 06:08:23;;;;;;;0.00;0.00;;;;;;;;;;6256351;22;20004;-91
2023/06/21 06:10:49;;;;;;;0.00;0.00;;;;;;;;;;6253526;22;20009;-90
2023/06/21 06:13:15;;;;;;;0.00;0.00;;;;;;;;;;6256544;22;20010;-90
2023/06/21 06:15:41;;;;;;;0.00;0.00;;;;;;;;;;6255780;22;20342;-91
2023/06/21 06:18:06;;;;;;;0.00;0.00;;;20.30;99.90;;;;;;6255569;22;20288;-90
2023/06/21 06:20:32;;;;;;;0.00;0.00;;;;;;;;;;6255204;22;20004;-90
2023/06/21 06:22:57;;;;;;;0.00;0.00;;;20.20;99.90;;;;;;6254674;22;20004;-91
2023/06/21 06:25:23;;;;;;;0.00;0.00;;;;;;;;;;6255737;22;20010;-90
2023/06/21 06:27:49;;;;;;;0.00;0.00;;;;;;;;;;6254906;22;20030;-90
2023/06/21 06:30:15;;;;;;;0.00;0.00;;;;;;;;;;6253615;22;20346;-88
2023/06/21 06:32:41;;;;;;;0.00;0.00;;;;;;;;;;6254083;22;20335;-89
2023/06/21 06:35:07;;;;;;;0.00;0.00;;;20.60;99.90;;;;;;6252974;22;20023;-88
2023/06/21 06:37:33;;;;;;;0.00;0.00;;;;;;;;;;6259053;22;20011;-90
2023/06/21 06:39:58;;;;;;;0.00;0.00;;;20.80;99.90;;;;;;6280539;22;20031;-90
2023/06/21 06:42:24;;;;;;;0.00;0.00;;;20.90;99.90;;;;;;6278925;22;20335;-90
2023/06/21 06:44:51;;;;;;;0.00;0.00;;;;;;;;;;6279407;22;20052;-90
2023/06/21 06:47:18;;;;;;;0.00;0.00;;;;;;;;;;6278639;22;20006;-89
2023/06/21 06:49:43;;;;;;;0.00;0.00;;;21.30;99.90;;;;;;6278997;22;20086;-88
2023/06/21 06:52:11;;;;;;;0.00;0.00;;;21.00;99.90;;;;;;6278022;22;20046;-89
2023/06/21 06:54:37;;;;;;;0.00;0.00;;;;;;;;;;6277864;22;20086;-89
2023/06/21 06:57:03;;;;;;;0.00;0.00;;;;;;;;;;6277721;22;19999;-91
2023/06/21 06:59:29;;;;;;;0.00;0.00;;;21.00;99.90;;;;;;6277833;22;20053;-90
2023/06/21 07:01:55;;;;;;;0.00;0.00;;;21.00;99.90;;;;;;6277772;22;20454;-88
2023/06/21 07:04:21;;;;;;;0.00;0.00;;;;;;;;;;6277534;22;20027;-89
2023/06/21 07:06:46;;;;;;;0.00;0.00;;;;;;;;;;6277190;22;20051;-89
2023/06/21 07:09:12;;;;;;;0.00;0.00;;;21.20;99.90;;;;;;6276365;22;20020;-89
2023/06/21 07:11:38;;;;;;;0.00;0.00;;;;;;;;;;6277262;22;20442;-89
2023/06/21 07:14:03;;;;;;;0.00;0.00;;;21.30;99.90;;;;;;6276319;22;20008;-89
2023/06/21 07:16:34;;;;;;;0.00;0.00;;;21.50;99.90;;;;;;6276466;22;20011;-90
2023/06/21 07:19:00;;;;;;;0.00;0.00;;;;;;;;;;6276147;22;20431;-88
2023/06/21 07:21:27;;;;;;;0.00;0.00;;;;;;;;;;6275814;22;20015;-87
2023/06/21 07:23:53;;;;;;;0.00;0.00;;;21.50;99.90;;;;;;6276419;22;20000;-88
2023/06/21 07:26:18;;;;;;;0.00;0.00;;;21.60;99.90;;;;;;6276108;22;20439;-89
2023/06/21 07:28:44;;;;;;;0.00;0.00;;;21.60;99.90;;;;;;6274985;22;20431;-88
2023/06/21 07:31:10;;;;;;;0.00;0.00;;;;;;;;;;6274872;22;20439;-87
2023/06/21 07:33:36;;;;;;;0.00;0.00;;;;;;;;;;6275139;22;20335;-89
2023/06/21 07:36:02;;;;;;;0.00;0.00;;;;;;;;;;6275131;22;20057;-89
2023/06/21 07:38:27;;;;;;;0.00;0.00;;;;;;;;;;6274905;22;20453;-88
2023/06/21 07:40:53;;;;;;;0.00;0.00;;;;;;;;;;6275157;22;20454;-88
2023/06/21 07:43:20;;;;;;;0.00;0.00;;;;;;;;;;6275336;22;20430;-87
2023/06/21 07:45:45;;;;;;;0.00;0.00;;;22.60;99.90;;;;;;6274342;22;20439;-88
2023/06/21 07:48:11;;;;;;;0.00;0.00;;;22.40;99.90;;;;;;6274058;22;20007;-89
2023/06/21 07:50:36;;;;;;;0.00;0.00;;;22.50;99.90;;;;;;6273948;22;20010;-89
2023/06/21 07:53:03;;;;;;;0.00;0.00;;;;;;;;;;6275335;22;20331;-89
2023/06/21 07:55:29;;;;;;;0.00;0.00;;;22.50;99.90;;;;;;6274686;22;20007;-88
2023/06/21 07:57:54;;;;;;;0.00;0.00;;;;;;;;;;6274980;22;20351;-88
2023/06/21 08:00:20;;;;;;;0.00;0.00;;;22.30;99.90;;;;;;6274039;22;20061;-88
2023/06/21 08:02:49;;;;;;;0.00;0.00;;;22.30;99.90;;;;;;6277111;22;20008;-88
2023/06/21 08:05:15;;;;;;;0.00;0.00;;;;;;;;;;6277169;22;20030;-89
2023/06/21 08:07:41;;;;;;;0.00;0.00;;;22.40;99.90;;;;;;6275620;22;19996;-90
2023/06/21 08:10:08;;;;;;;0.00;0.00;;;22.40;99.90;;;;;;6275539;22;20006;-88
2023/06/21 08:12:34;;;;;;;0.00;0.00;;;;;;;;;;6275712;22;20000;-88
2023/06/21 08:14:59;;;;;;;0.00;0.00;;;22.40;99.90;;;;;;6275783;22;20034;-89
2023/06/21 08:17:25;;;;;;;0.00;0.00;;;22.40;99.90;;;;;;6276198;22;20069;-90
2023/06/21 08:19:51;;;;;;;0.00;0.00;;;;;;;;;;6277244;22;20057;-91
2023/06/21 08:22:17;;;;;;;0.00;0.00;;;;;;;;;;6274828;22;20007;-89
2023/06/21 08:24:43;;;;;;;0.00;0.00;;;;;;;;;;6275365;22;20093;-89
2023/06/21 08:27:09;;;;;;;0.00;0.00;;;;;;;;;;6276054;22;20419;-88
2023/06/21 08:29:35;;;;;;;0.00;0.00;;;;;;;;;;6276449;22;20050;-88
2023/06/21 08:32:03;;;;;;;0.00;0.00;;;;;;;;;;6275219;22;19999;-88
2023/06/21 08:34:29;;;;;;;0.00;0.00;;;;;;;;;;6275145;22;20004;-89
2023/06/21 08:36:55;;;;;;;0.00;0.00;;;;;;;;;;6274636;22;20459;-89
2023/06/21 08:39:21;;;;;;;0.00;0.00;;;;;;;;;;6249320;22;20071;-89
2023/06/21 08:41:46;;;;;;;0.00;0.00;;;22.40;99.90;;;;;;6250499;22;20099;-88
2023/06/21 08:44:12;;;;;;;0.00;0.00;;;;;;;;;;6249419;22;20065;-89
2023/06/21 08:46:39;;;;;;;0.00;0.00;;;22.60;99.90;;;;;;6249971;22;19995;-88
2023/06/21 08:49:08;;;;;;;0.00;0.00;;;22.60;99.90;;;;;;6249039;22;20427;-89
2023/06/21 08:51:35;;;;;;;0.00;0.00;;;22.70;99.90;;;;;;6249465;22;20008;-89
2023/06/21 08:54:07;;;;;;;0.00;0.00;;;22.90;99.90;;;;;;6249465;22;20007;-88
2023/06/21 08:56:40;;;;;;;0.00;0.00;;;23.10;99.90;;;;;;6249221;22;20011;-89
2023/06/21 08:59:11;;;;;;;0.00;0.00;;;23.30;99.90;;;;;;6249404;22;20531;-88
2023/06/21 09:01:56;;;;;;;0.00;0.00;;;23.00;99.90;;;;;;6249784;22;20037;-87
2023/06/21 09:04:25;;;;;;;0.00;0.00;;;23.00;99.90;;;;;;6250480;22;20008;-89
2023/06/21 09:06:51;;;;;;;0.00;0.00;;;23.10;99.90;;;;;;6249867;22;20091;-89
2023/06/21 09:09:17;;;;;;;0.00;0.00;;;;;;;;;;6248578;22;20053;-89
2023/06/21 09:11:46;;;;;;;0.00;0.00;;;23.50;99.90;;;;;;6248797;22;20439;-90
2023/06/21 09:14:12;;;;;;;0.00;0.00;;;23.50;99.90;;;;;;6249767;22;20004;-88
2023/06/21 09:16:38;;;;;;;0.00;0.00;;;23.60;99.90;;;;;;6249328;22;20083;-88
2023/06/21 09:19:04;;;;;;;0.00;0.00;;;23.80;99.90;;;;;;6249194;22;20010;-89
2023/06/21 09:21:32;;;;;;;0.00;0.00;;;23.90;99.90;;;;;;6248921;22;20009;-89
2023/06/21 09:23:58;;;;;;;0.00;0.00;;;25.60;99.90;;;;;;6247834;22;20011;-88
2023/06/21 09:26:24;;;;;;;0.00;0.00;;;;;;;;;;6249013;22;20335;-88
2023/06/21 09:28:50;;;;;;;0.00;0.00;;;;;;;;;;6248801;22;20003;-89
2023/06/21 09:31:15;;;;;;;0.00;0.00;;;;;;;;;;6246871;22;20008;-88
2023/06/21 09:33:43;;;;;;;0.00;0.00;;;24.30;99.90;;;;;;6246721;22;20062;-88
2023/06/21 09:36:09;;;;;;;0.00;0.00;;;24.20;99.90;;;;;;6249196;22;20004;-88
2023/06/21 09:38:38;;;;;;;0.00;0.00;;;;;;;;;;6267671;22;20086;-87
2023/06/21 09:41:07;;;;;;;0.00;0.00;;;24.70;99.90;;;;;;6275171;22;20349;-88
2023/06/21 09:43:33;;;;;;;0.00;0.00;;;;;;;;;;6267071;22;20007;-88
2023/06/21 09:46:08;;;;;;;0.00;0.00;;;24.60;99.90;;;;;;6273294;22;20010;-91
2023/06/21 09:48:35;;;;;;;0.00;0.00;;;24.20;99.90;;;;;;6273479;22;20273;-89
2023/06/21 09:51:02;;;;;;;0.00;0.00;;;24.00;99.90;;;;;;6274276;22;20004;-88
2023/06/21 09:53:28;;;;;;;0.00;0.00;;;;;;;;;;6276681;22;20003;-87
2023/06/21 09:56:00;;;;;;;0.00;0.00;;;;;;;;;;6274316;22;20347;-88
2023/06/21 09:58:25;;;;;;;0.00;0.00;;;24.40;99.90;;;;;;6269983;22;20008;-89
2023/06/21 10:00:51;;;;;;;0.00;0.00;;;24.80;99.90;;;;;;6273694;22;20060;-89
2023/06/21 10:03:24;;;;;;;0.00;0.00;;;25.20;99.90;;;;;;6274378;22;20057;-88
2023/06/21 10:05:55;;;;;;;0.00;0.00;;;25.20;99.90;;;;;;6275722;22;20004;-88
2023/06/21 10:08:33;;;;;;;0.00;0.00;;;25.40;99.90;;;;;;6275682;22;20455;-89
2023/06/21 10:10:59;;;;;;;0.00;0.00;;;25.60;99.90;;;;;;6275535;22;20008;-88
2023/06/21 10:13:26;;;;;;;0.00;0.00;;;25.50;99.90;;;;;;6274959;22;20003;-90
2023/06/21 10:15:52;;;;;;;0.00;0.00;;;;;;;;;;6275234;22;20651;-89
2023/06/21 10:18:19;;;;;;;0.00;0.00;;;25.70;99.90;;;;;;6275040;22;20335;-88
2023/06/21 10:20:48;;;;;;;0.00;0.00;;;;;;;;;;6277574;22;20008;-90
2023/06/21 10:23:15;;;;;;;0.00;0.00;;;25.70;99.90;;;;;;6279673;22;20035;-89
2023/06/21 10:25:44;;;;;;;0.00;0.00;;;25.70;99.90;;;;;;6274866;22;20247;-90
2023/06/21 10:28:13;;;;;;;0.00;0.00;;;25.70;99.90;;;;;;6248614;22;20004;-90
2023/06/21 10:30:41;;;;;;;0.00;0.00;;;25.30;99.90;;;;;;6277007;22;20003;-88
2023/06/21 10:33:09;;;;;;;0.00;0.00;;;25.20;99.90;;;;;;6275806;22;20004;-90
2023/06/21 10:35:42;;;;;;;0.00;0.00;;;25.20;99.90;;;;;;6276013;22;20007;-87
2023/06/21 10:38:31;;;;;;;0.00;0.00;;;25.20;99.90;;;;;;6252589;22;20107;-89
2023/06/21 10:40:57;;;;;;;0.00;0.00;;;25.20;99.90;;;;;;6276218;22;20030;-89
2023/06/21 10:43:23;;;;;;;0.00;0.00;;;25.80;99.90;;;;;;6274636;22;20007;-89
2023/06/21 10:45:50;;;;;;;0.00;0.00;;;;;;;;;;6273846;22;19999;-90
2023/06/21 10:48:17;;;;;;;0.00;0.00;;;25.90;99.90;;;;;;6275944;22;20003;-87
2023/06/21 10:50:43;;;;;;;0.00;0.00;;;;;;;;;;6274458;22;20035;-88
2023/06/21 10:53:09;;;;;;;0.00;0.00;;;;;;;;;;6274877;22;20000;-90
2023/06/21 10:55:39;;;;;;;0.00;0.00;;;;;;;;;;6274986;22;20003;-89
2023/06/21 10:58:05;;;;;;;0.00;0.00;;;;;;;;;;6274532;22;20010;-89
2023/06/21 11:00:31;;;;;;;0.00;0.00;;;26.30;99.90;;;;;;6274825;22;20026;-89
2023/06/21 11:02:57;;;;;;;0.00;0.00;;;26.50;99.90;;;;;;6275038;22;20022;-90
2023/06/21 11:05:25;;;;;;;0.00;0.00;;;26.40;99.90;;;;;;6275029;22;20074;-89
2023/06/21 11:08:00;;;;;;;0.00;0.00;;;26.60;99.90;;;;;;6274759;22;20027;-88
2023/06/21 11:10:49;;;;;;;0.00;0.00;;;26.80;99.90;;;;;;6274774;22;20004;-90
2023/06/21 11:13:16;;;;;;;0.00;0.00;;;26.80;99.90;;;;;;6276537;22;20094;-87
2023/06/21 11:15:45;;;;;;;0.00;0.00;;;26.90;99.90;;;;;;6275989;22;20419;-89
2023/06/21 11:18:18;;;;;;;0.00;0.00;;;27.20;99.80;;;;;;6276243;22;20036;-88
2023/06/21 11:20:55;;;;;;;0.00;0.00;;;27.10;99.90;;;;;;6275897;22;19992;-88
2023/06/21 11:23:22;;;;;;;0.00;0.00;;;27.50;99.40;;;;;;6275860;22;20053;-88
2023/06/21 11:26:13;;;;;;;0.00;0.00;;;27.70;99.90;;;;;;6274793;22;20034;-90
2023/06/21 11:28:46;;;;;;;0.00;0.00;;;27.00;99.00;;;;;;6276332;22;20035;-88
2023/06/21 11:31:14;;;;;;;0.00;0.00;;;26.90;98.20;;;;;;6277344;22;20022;-87
2023/06/21 11:33:56;;;;;;;0.00;0.00;;;26.70;98.90;;;;;;6269570;22;20012;-88
2023/06/21 11:36:31;;;;;;;0.00;0.00;;;26.20;99.50;;;;;;6275615;22;20031;-86
2023/06/21 11:39:06;;;;;;;0.00;0.00;;;26.40;99.90;;;;;;6276116;22;20011;-89
2023/06/21 11:41:43;;;;;;;0.00;0.00;;;26.30;98.90;;;;;;6276069;22;20330;-90
2023/06/21 11:44:13;;;;;;;0.00;0.00;;;26.50;99.90;;;;;;6274808;22;20119;-89
2023/06/21 11:46:39;;;;;;;0.00;0.00;;;;;;;;;;6275709;22;20000;-89
2023/06/21 11:49:05;;;;;;;0.00;0.00;;;;;;;;;;6275201;22;20427;-88
2023/06/21 11:51:32;;;;;;;0.00;0.00;;;26.30;99.00;;;;;;6274898;22;20004;-88
2023/06/21 11:53:58;;;;;;;0.00;0.00;;;;;;;;;;6274468;22;20004;-88
2023/06/21 11:56:34;;;;;;;0.00;0.00;;;26.80;99.90;;;;;;6275070;22;20010;-88
2023/06/21 11:59:05;;;;;;;0.00;0.00;;;26.50;98.80;;;;;;6275870;22;20030;-90
2023/06/21 12:01:31;;;;;;;0.00;0.00;;;28.10;99.90;;;;;;6276115;22;20453;-87
2023/06/21 12:04:04;;;;;;;0.00;0.00;;;27.10;99.90;;;;;;6276670;22;19999;-88
2023/06/21 12:06:30;;;;;;;0.00;0.00;;;;;;;;;;6276803;22;20026;-88
2023/06/21 12:08:57;;;;;;;0.00;0.00;;;27.30;99.80;;;;;;6275920;22;20003;-88
2023/06/21 12:11:26;;;;;;;0.00;0.00;;;27.60;99.90;;;;;;6276420;22;20026;-88
2023/06/21 12:13:52;;;;;;;0.00;0.00;;;;;;;;;;6276602;22;20007;-88
2023/06/21 12:16:18;;;;;;;0.00;0.00;;;;;;;;;;6275149;22;20003;-88
2023/06/21 12:18:44;;;;;;;0.00;0.00;;;;;;;;;;6273574;22;20099;-89
2023/06/21 12:21:10;;;;;;;0.00;0.00;;;;;;;;;;6276258;22;20003;-88
2023/06/21 12:23:36;;;;;;;0.00;0.00;;;27.70;99.90;;;;;;6276258;22;20026;-89
2023/06/21 12:26:03;;;;;;;0.00;0.00;;;30.00;99.00;;;;;;6278458;22;20427;-88
2023/06/21 12:28:31;;;;;;;0.00;0.00;;;27.30;96.60;;;;;;6275354;22;20000;-91
2023/06/21 12:30:57;;;;;;;0.00;0.00;;;;;;;;;;6277458;22;20000;-89
2023/06/21 12:33:30;;;;;;;0.00;0.00;;;27.30;96.80;;;;;;6278110;22;20058;-88
2023/06/21 12:36:17;;;;;;;0.00;0.00;;;27.40;96.90;;;;;;6278256;22;20011;-90
2023/06/21 12:38:57;;;;;;;0.00;0.00;;;27.00;97.30;;;;;;6277194;22;20392;-87
2023/06/21 12:41:24;;;;;;;0.00;0.00;;;27.30;96.70;;;;;;6276181;22;20091;-88
2023/06/21 12:43:53;;;;;;;0.00;0.00;;;27.30;97.00;;;;;;6250076;22;20022;-88
2023/06/21 12:46:19;;;;;;;0.00;0.00;;;27.30;97.60;;;;;;6276109;22;20029;-89
2023/06/21 12:48:59;;;;;;;0.00;0.00;;;29.10;97.70;;;;;;6275489;22;20454;-89
2023/06/21 12:51:51;;;;;;;0.00;0.00;;;27.30;97.30;;;;;;6276862;22;20004;-88
2023/06/21 12:54:19;;;;;;;0.00;0.00;;;26.90;97.00;;;;;;6271034;22;20008;-89
2023/06/21 12:56:49;;;;;;;0.00;0.00;;;26.40;97.40;;;;;;6278941;22;20008;-90
2023/06/21 12:59:15;;;;;;;0.00;0.00;;;;;;;;;;6278748;22;20004;-89
2023/06/21 13:01:41;;;;;;;0.00;0.00;;;;;;;;;;6275490;22;20035;-88
2023/06/21 13:04:12;;;;;;;0.00;0.00;;;26.50;97.10;;;;;;6275090;22;20442;-89
2023/06/21 13:06:38;;;;;;;0.00;0.00;;;;;;;;;;6276117;22;20002;-86
2023/06/21 13:09:04;;;;;;;0.00;0.00;;;;;;;;;;6275575;22;20000;-90
2023/06/21 13:11:31;;;;;;;0.00;0.00;;;26.20;97.50;;;;;;6277566;22;19996;-90
2023/06/21 13:13:57;;;;;;;0.00;0.00;;;;;;;;;;6278432;22;20003;-90
2023/06/21 13:16:23;;;;;;;0.00;0.00;;;;;;;;;;6279364;22;20008;-91
2023/06/21 13:18:52;;;;;;;0.00;0.00;;;;;;;;;;6277615;22;20427;-88
2023/06/21 13:21:21;;;;;;;0.00;0.00;;;26.90;96.40;;;;;;6279253;22;20525;-90
2023/06/21 13:23:48;;;;;;;0.00;0.00;;;26.90;96.60;;;;;;6278212;22;20007;-90
2023/06/21 13:26:14;;;;;;;0.00;0.00;;;;;;;;;;6278575;22;20027;-90
2023/06/21 13:28:40;;;;;;;0.00;0.00;;;27.30;96.40;;;;;;6277013;22;20007;-90
2023/06/21 13:31:05;;;;;;;0.00;0.00;;;27.30;96.60;;;;;;6277429;22;20019;-90